createdAt,value
2022-10-26T00:01:13.032Z,100683.13
2022-10-26T00:03:41.991Z,100674.22
2022-10-26T00:06:14.843Z,100685.00
2022-10-26T00:08:41.507Z,100670.47
2022-10-26T00:15:21.146Z,100678.97
2022-10-26T00:17:48.785Z,100685.97
2022-10-26T00:20:15.612Z,100682.97
2022-10-26T00:22:42.331Z,100679.47
2022-10-26T00:25:09.307Z,100673.56
2022-10-26T00:27:36.053Z,100684.69
2022-10-26T00:30:06.585Z,100696.28
2022-10-26T00:32:34.115Z,100700.56
2022-10-26T00:35:10.507Z,100693.19
2022-10-26T00:37:48.040Z,100696.44
2022-10-26T00:40:15.070Z,100691.03
2022-10-26T00:42:41.757Z,100702.41
2022-10-26T00:45:24.492Z,100706.44
2022-10-26T00:47:52.869Z,100711.03
2022-10-26T00:50:26.477Z,100715.84
2022-10-26T00:52:54.681Z,100707.22
2022-10-26T00:55:26.936Z,100694.59
2022-10-26T00:57:54.741Z,100696.53
2022-10-26T01:00:22.253Z,100690.03
2022-10-26T01:02:52.651Z,100681.13
2022-10-26T01:05:19.417Z,100701.63
2022-10-26T01:07:48.096Z,100708.34
2022-10-26T01:10:15.355Z,100698.13
2022-10-26T01:12:42.624Z,100701.94
2022-10-26T01:15:10.049Z,100699.25
2022-10-26T01:18:01.227Z,100695.44
2022-10-26T01:21:09.171Z,100701.94
2022-10-26T01:24:01.470Z,100693.88
2022-10-26T01:26:27.972Z,100679.59
2022-10-26T01:29:06.629Z,100672.91
2022-10-26T01:31:41.961Z,100666.75
2022-10-26T01:34:21.727Z,100666.28
2022-10-26T01:37:00.154Z,100675.81
2022-10-26T01:39:48.751Z,100665.78
2022-10-26T01:42:18.128Z,100658.97
2022-10-26T01:44:53.270Z,100656.28
2022-10-26T01:47:21.303Z,100663.78
2022-10-26T01:49:56.357Z,100658.91
2022-10-26T01:52:23.844Z,100655.91
2022-10-26T01:54:50.427Z,100646.47
2022-10-26T01:57:20.844Z,100647.56
2022-10-26T01:59:53.665Z,100655.09
2022-10-26T02:02:29.367Z,100644.88
2022-10-26T02:05:33.147Z,100646.78
2022-10-26T02:08:23.545Z,100661.66
2022-10-26T02:11:17.393Z,100661.34
2022-10-26T02:14:00.809Z,100666.22
2022-10-26T02:16:54.000Z,100664.31
2022-10-26T02:19:32.988Z,100664.38
2022-10-26T02:22:13.118Z,100662.22
2022-10-26T02:24:41.211Z,100650.34
2022-10-26T02:27:13.314Z,100646.53
2022-10-26T02:29:41.294Z,100643.25
2022-10-26T02:32:09.088Z,100646.25
2022-10-26T02:34:38.040Z,100645.94
2022-10-26T02:37:06.041Z,100637.84
2022-10-26T02:39:36.026Z,100644.63
2022-10-26T02:42:06.149Z,100648.97
2022-10-26T02:44:40.097Z,100644.38
2022-10-26T02:47:06.718Z,100649.50
2022-10-26T02:49:33.288Z,100652.44
2022-10-26T02:52:12.395Z,100644.06
2022-10-26T02:54:56.820Z,100663.25
2022-10-26T02:57:33.045Z,100658.91
2022-10-26T03:00:01.050Z,100650.81
2022-10-26T03:02:30.096Z,100647.06
2022-10-26T03:04:56.979Z,100658.38
2022-10-26T03:07:24.834Z,100669.69
2022-10-26T03:09:51.681Z,100670.75
2022-10-26T03:12:18.575Z,100684.25
2022-10-26T03:14:45.162Z,100684.78
2022-10-26T03:17:11.701Z,100682.34
2022-10-26T03:19:38.231Z,100675.56
2022-10-26T03:22:04.938Z,100669.66
2022-10-26T03:24:31.577Z,100689.13
2022-10-26T03:27:01.172Z,100691.84
2022-10-26T03:29:28.931Z,100699.97
2022-10-26T03:31:55.470Z,100685.97
2022-10-26T03:34:22.134Z,100684.88
2022-10-26T03:36:48.977Z,100687.56
2022-10-26T03:39:15.608Z,100686.22
2022-10-26T03:41:42.205Z,100679.97
2022-10-26T03:44:09.013Z,100673.47
2022-10-26T03:46:35.549Z,100673.47
2022-10-26T03:49:02.050Z,100669.69
2022-10-26T03:51:28.582Z,100657.28
2022-10-26T03:53:55.113Z,100654.88
2022-10-26T03:56:22.110Z,100641.16
2022-10-26T03:58:48.718Z,100645.50
2022-10-26T04:01:15.441Z,100654.13
2022-10-26T04:03:45.668Z,100649.50
2022-10-26T04:06:12.513Z,100644.16
2022-10-26T04:08:41.362Z,100644.75
2022-10-26T04:11:08.048Z,100658.47
2022-10-26T04:13:34.928Z,100653.00
2022-10-26T04:16:01.596Z,100660.63
2022-10-26T04:18:28.161Z,100653.66
2022-10-26T04:20:54.810Z,100658.25
2022-10-26T04:23:21.738Z,100657.91
2022-10-26T04:25:48.375Z,100654.63
2022-10-26T04:28:15.077Z,100652.19
2022-10-26T04:30:41.890Z,100648.50
2022-10-26T04:33:08.716Z,100636.47
2022-10-26T04:35:35.884Z,100644.34
2022-10-26T04:38:05.341Z,100641.44
2022-10-26T04:40:33.800Z,100650.38
2022-10-26T04:43:00.634Z,100657.91
2022-10-26T04:45:30.854Z,100659.75
2022-10-26T04:48:06.310Z,100661.03
2022-10-26T04:50:33.146Z,100669.34
2022-10-26T04:53:03.196Z,100654.22
2022-10-26T04:55:29.727Z,100647.53
2022-10-26T04:57:58.651Z,100641.88
2022-10-26T05:00:30.039Z,100651.81
2022-10-26T05:03:03.418Z,100650.16
2022-10-26T05:05:32.359Z,100649.91
2022-10-26T05:07:59.360Z,100655.56
2022-10-26T05:10:27.196Z,100649.63
2022-10-26T05:12:55.330Z,100635.03
2022-10-26T05:15:22.599Z,100636.41
2022-10-26T05:17:56.393Z,100642.06
2022-10-26T05:20:29.101Z,100645.03
2022-10-26T05:22:56.762Z,100646.13
2022-10-26T05:25:23.857Z,100649.63
2022-10-26T05:27:50.550Z,100665.50
2022-10-26T05:30:17.204Z,100665.97
2022-10-26T05:32:43.812Z,100672.72
2022-10-26T05:35:10.398Z,100673.25
2022-10-26T05:37:37.053Z,100674.25
2022-10-26T05:40:04.039Z,100667.75
2022-10-26T05:42:30.901Z,100662.13
2022-10-26T05:44:57.831Z,100669.13
2022-10-26T05:47:24.447Z,100670.16
2022-10-26T05:49:51.170Z,100682.00
2022-10-26T05:52:17.792Z,100690.09
2022-10-26T05:54:44.508Z,100697.69
2022-10-26T05:57:14.887Z,100688.78
2022-10-26T05:59:41.758Z,100688.75
2022-10-26T06:02:32.076Z,100690.09
2022-10-26T06:05:04.479Z,100697.09
2022-10-26T06:07:31.686Z,100699.19
2022-10-26T06:09:58.932Z,100709.41
2022-10-26T06:12:26.593Z,100716.50
2022-10-26T06:14:53.464Z,100721.63
2022-10-26T06:17:43.531Z,100728.88
2022-10-26T06:20:46.809Z,100720.88
2022-10-26T06:23:41.936Z,100725.78
2022-10-26T06:26:30.262Z,100727.13
2022-10-26T06:29:30.680Z,100719.94
2022-10-26T06:31:57.609Z,100737.84
2022-10-26T06:34:36.066Z,100738.88
2022-10-26T06:37:04.176Z,100744.81
2022-10-26T06:39:35.580Z,100741.00
2022-10-26T06:42:02.480Z,100745.75
2022-10-26T06:44:29.376Z,100737.06
2022-10-26T06:47:08.137Z,100742.94
2022-10-26T06:49:55.568Z,100744.00
2022-10-26T06:52:33.755Z,100750.44
2022-10-26T06:55:00.817Z,100757.53
2022-10-26T06:57:35.976Z,100757.94
2022-10-26T07:00:07.254Z,100759.53
2022-10-26T07:02:34.217Z,100757.88
2022-10-26T07:05:01.084Z,100759.78
2022-10-26T07:07:30.461Z,100764.53
2022-10-26T07:09:57.156Z,100768.81
2022-10-26T07:12:23.814Z,100776.66
2022-10-26T07:14:51.009Z,100783.91
2022-10-26T07:17:17.780Z,100787.13
2022-10-26T07:19:44.999Z,100783.91
2022-10-26T07:22:12.156Z,100791.47
2022-10-26T07:24:39.796Z,100792.59
2022-10-26T07:27:06.924Z,100789.59
2022-10-26T07:29:35.475Z,100802.25
2022-10-26T07:32:02.970Z,100798.16
2022-10-26T07:34:29.656Z,100795.28
2022-10-26T07:36:56.428Z,100792.06
2022-10-26T07:39:23.590Z,100802.06
2022-10-26T07:41:50.689Z,100811.72
2022-10-26T07:44:17.637Z,100811.97
2022-10-26T07:46:44.430Z,100819.50
2022-10-26T07:49:11.702Z,100821.16
2022-10-26T07:51:38.739Z,100818.44
2022-10-26T07:54:05.720Z,100818.56
2022-10-26T07:56:32.701Z,100818.75
2022-10-26T07:58:59.549Z,100823.31
2022-10-26T08:01:26.424Z,100820.22
2022-10-26T08:03:54.702Z,100824.63
2022-10-26T08:06:22.506Z,100830.81
2022-10-26T08:08:49.489Z,100830.31
2022-10-26T08:11:17.367Z,100835.09
2022-10-26T08:13:44.449Z,100849.13
2022-10-26T08:16:11.527Z,100849.56
2022-10-26T08:18:38.197Z,100852.44
2022-10-26T08:21:11.342Z,100858.41
2022-10-26T08:23:39.810Z,100854.28
2022-10-26T08:26:07.183Z,100871.00
2022-10-26T08:28:34.170Z,100858.69
2022-10-26T08:31:01.315Z,100855.69
2022-10-26T08:33:27.987Z,100851.22
2022-10-26T08:36:03.232Z,100851.63
2022-10-26T08:38:29.952Z,100851.50
2022-10-26T08:40:58.806Z,100842.47
2022-10-26T08:43:35.150Z,100847.00
2022-10-26T08:46:27.614Z,100853.91
2022-10-26T08:49:22.144Z,100855.63
2022-10-26T08:51:52.694Z,100850.47
2022-10-26T08:54:35.549Z,100858.38
2022-10-26T08:57:11.946Z,100862.47
2022-10-26T08:59:44.323Z,100865.06
2022-10-26T09:02:16.089Z,100864.69
2022-10-26T09:04:43.336Z,100865.59
2022-10-26T09:07:18.995Z,100870.28
2022-10-26T09:10:15.502Z,100886.16
2022-10-26T09:12:55.572Z,100876.69
2022-10-26T09:15:28.110Z,100882.53
2022-10-26T09:18:17.053Z,100882.63
2022-10-26T09:21:12.262Z,100887.56
2022-10-26T09:23:44.759Z,100882.13
2022-10-26T09:26:26.875Z,100893.59
2022-10-26T09:28:54.784Z,100890.34
2022-10-26T09:31:23.336Z,100881.66
2022-10-26T09:33:51.603Z,100886.19
2022-10-26T09:36:20.780Z,100901.03
2022-10-26T09:39:09.008Z,100892.50
2022-10-26T09:41:43.845Z,100887.69
2022-10-26T09:44:27.244Z,100888.16
2022-10-26T09:47:01.053Z,100887.19
2022-10-26T09:49:38.729Z,100890.50
2022-10-26T09:52:05.351Z,100893.59
2022-10-26T09:54:31.916Z,100886.03
2022-10-26T09:57:01.771Z,100894.09
2022-10-26T09:59:30.254Z,100904.19
2022-10-26T10:01:56.995Z,100900.81
2022-10-26T10:04:24.102Z,100916.84
2022-10-26T10:07:00.935Z,100916.53
2022-10-26T10:09:27.631Z,100922.47
2022-10-26T10:11:56.812Z,100919.69
2022-10-26T10:14:28.816Z,100926.78
2022-10-26T10:17:02.549Z,100920.34
2022-10-26T10:19:34.791Z,100925.25
2022-10-26T10:22:25.109Z,100926.44
2022-10-26T10:25:04.595Z,100928.47
2022-10-26T10:27:33.394Z,100940.47
2022-10-26T10:30:22.582Z,100938.19
2022-10-26T10:33:06.712Z,100942.00
2022-10-26T10:35:33.873Z,100951.16
2022-10-26T10:38:01.344Z,100952.16
2022-10-26T10:40:31.189Z,100960.53
2022-10-26T10:43:12.538Z,100965.19
2022-10-26T10:45:40.450Z,100957.00
2022-10-26T10:48:13.796Z,100959.88
2022-10-26T10:50:58.893Z,100956.28
2022-10-26T10:53:44.473Z,100955.28
2022-10-26T10:56:30.087Z,100958.97
2022-10-26T10:59:04.227Z,100956.06
2022-10-26T11:01:36.496Z,100956.03
2022-10-26T11:04:18.394Z,100962.38
2022-10-26T11:06:46.758Z,100966.09
2022-10-26T11:09:16.853Z,100967.69
2022-10-26T11:11:49.763Z,100965.75
2022-10-26T11:14:30.628Z,100961.25
2022-10-26T11:17:24.373Z,100966.22
2022-10-26T11:19:59.632Z,100971.03
2022-10-26T11:22:33.265Z,100968.53
2022-10-26T11:25:06.079Z,100971.22
2022-10-26T11:27:50.256Z,100975.75
2022-10-26T11:30:22.764Z,100986.09
2022-10-26T11:33:24.955Z,100982.53
2022-10-26T11:36:06.107Z,100985.44
2022-10-26T11:38:57.100Z,100988.31
2022-10-26T11:41:31.232Z,100982.38
2022-10-26T11:44:09.670Z,100985.56
2022-10-26T11:46:49.822Z,100988.44
2022-10-26T11:49:35.415Z,100989.25
2022-10-26T11:52:25.663Z,100983.47
2022-10-26T11:55:04.544Z,100978.69
2022-10-26T11:57:36.596Z,100988.97
2022-10-26T12:00:07.881Z,100990.69
2022-10-26T12:05:33.266Z,100997.91
2022-10-26T12:08:05.801Z,101003.03
2022-10-26T12:10:39.184Z,100994.69
2022-10-26T12:13:24.292Z,100994.75
2022-10-26T12:16:04.089Z,100996.50
2022-10-26T12:18:54.396Z,100997.47
2022-10-26T12:21:26.442Z,101000.84
2022-10-26T12:23:54.620Z,100997.63
2022-10-26T12:26:24.548Z,101000.19
2022-10-26T12:29:03.435Z,101001.44
2022-10-26T12:31:36.112Z,101001.47
2022-10-26T12:34:10.975Z,101005.66
2022-10-26T12:36:55.479Z,100994.72
2022-10-26T12:39:37.090Z,101003.69
2022-10-26T12:42:06.785Z,100991.59
2022-10-26T12:45:01.291Z,101000.13
2022-10-26T12:47:27.899Z,101013.69
2022-10-26T12:50:07.130Z,101014.31
2022-10-26T12:52:52.221Z,101013.03
2022-10-26T12:55:48.789Z,101009.78
2022-10-26T12:58:49.141Z,101004.16
2022-10-26T13:01:52.988Z,101019.94
2022-10-26T13:04:37.920Z,101030.06
2022-10-26T13:07:16.444Z,101020.78
2022-10-26T13:09:51.125Z,101016.25
2022-10-26T13:12:18.171Z,101024.75
2022-10-26T13:15:02.332Z,101021.69
2022-10-26T13:20:04.575Z,101024.22
2022-10-26T13:22:31.384Z,101020.91
2022-10-26T13:25:05.099Z,101023.59
2022-10-26T13:27:36.743Z,101029.50
2022-10-26T13:30:03.722Z,101025.84
2022-10-26T13:32:33.719Z,101029.53
2022-10-26T13:35:02.789Z,101029.44
2022-10-26T13:37:34.086Z,101027.25
2022-10-26T13:40:04.253Z,101022.56
2022-10-26T13:42:44.537Z,101024.97
2022-10-26T13:45:15.264Z,101025.66
2022-10-26T13:47:41.869Z,101023.25
2022-10-26T13:50:15.845Z,101022.63
2022-10-26T13:52:48.109Z,101033.41
2022-10-26T13:55:26.619Z,101028.31
2022-10-26T13:57:59.186Z,101038.28
2022-10-26T14:00:26.580Z,101041.72
2022-10-26T14:02:54.588Z,101039.09
2022-10-26T14:05:22.234Z,101040.19
2022-10-26T14:07:58.150Z,101035.72
2022-10-26T14:10:40.697Z,101039.44
2022-10-26T14:13:10.666Z,101042.63
2022-10-26T14:15:37.532Z,101044.03
2022-10-26T14:18:04.713Z,101051.19
2022-10-26T14:20:32.187Z,101052.75
2022-10-26T14:22:59.044Z,101051.09
2022-10-26T14:25:41.794Z,101059.28
2022-10-26T14:28:45.865Z,101057.63
2022-10-26T14:31:20.570Z,101055.31
2022-10-26T14:33:47.613Z,101065.06
2022-10-26T14:36:15.940Z,101066.34
2022-10-26T14:38:47.713Z,101056.66
2022-10-26T14:41:17.723Z,101068.94
2022-10-26T14:43:47.963Z,101065.72
2022-10-26T14:46:17.223Z,101065.06
2022-10-26T14:48:54.641Z,101070.03
2022-10-26T14:51:27.193Z,101072.06
2022-10-26T14:53:58.358Z,101072.50
2022-10-26T14:56:40.333Z,101074.34
2022-10-26T14:59:19.324Z,101077.34
2022-10-26T15:02:24.459Z,101072.63
2022-10-26T15:05:04.504Z,101083.47
2022-10-26T15:07:36.758Z,101079.75
2022-10-26T15:10:04.387Z,101085.00
2022-10-26T15:12:36.349Z,101088.00
2022-10-26T15:15:14.190Z,101088.00
2022-10-26T15:17:47.889Z,101094.88
2022-10-26T15:20:21.808Z,101098.53
2022-10-26T15:23:13.325Z,101111.28
2022-10-26T15:25:50.107Z,101111.41
2022-10-26T15:28:39.879Z,101110.19
2022-10-26T15:31:12.478Z,101118.25
2022-10-26T15:33:42.993Z,101122.69
2022-10-26T15:36:17.372Z,101120.09
2022-10-26T15:38:45.692Z,101129.97
2022-10-26T15:41:33.469Z,101132.19
2022-10-26T15:44:07.397Z,101128.56
2022-10-26T15:46:42.033Z,101131.38
2022-10-26T15:49:16.330Z,101131.97
2022-10-26T15:51:46.675Z,101135.28
2022-10-26T15:54:16.701Z,101137.78
2022-10-26T15:56:44.075Z,101137.09
2022-10-26T15:59:15.358Z,101135.59
2022-10-26T16:01:45.150Z,101129.13
2022-10-26T16:04:12.835Z,101149.25
2022-10-26T16:06:43.780Z,101139.56
2022-10-26T16:09:15.587Z,101145.59
2022-10-26T16:11:45.575Z,101150.00
2022-10-26T16:14:13.471Z,101156.06
2022-10-26T16:16:41.252Z,101158.56
2022-10-26T16:19:30.996Z,101161.66
2022-10-26T16:21:57.361Z,101162.34
2022-10-26T16:24:24.286Z,101160.81
2022-10-26T16:26:51.163Z,101164.09
2022-10-26T16:29:19.585Z,101165.22
2022-10-26T16:31:47.085Z,101168.00
2022-10-26T16:34:14.722Z,101175.63
2022-10-26T16:36:41.826Z,101177.63
2022-10-26T16:39:11.972Z,101175.19
2022-10-26T16:41:38.562Z,101195.91
2022-10-26T16:44:05.449Z,101181.81
2022-10-26T16:46:32.028Z,101192.44
2022-10-26T16:48:59.532Z,101193.84
2022-10-26T16:51:28.039Z,101198.25
2022-10-26T16:53:56.754Z,101196.63
2022-10-26T16:56:28.580Z,101203.97
2022-10-26T16:58:57.921Z,101210.78
2022-10-26T17:01:25.561Z,101215.69
2022-10-26T17:03:53.084Z,101210.06
2022-10-26T17:06:20.241Z,101220.09
2022-10-26T17:08:47.511Z,101214.66
2022-10-26T17:11:20.135Z,101237.78
2022-10-26T17:13:48.020Z,101231.53
2022-10-26T17:16:18.650Z,101229.91
2022-10-26T17:18:47.348Z,101237.53
2022-10-26T17:21:17.006Z,101241.91
2022-10-26T17:23:43.723Z,101243.09
2022-10-26T17:26:12.517Z,101254.56
2022-10-26T17:28:39.159Z,101258.91
2022-10-26T17:31:13.954Z,101265.44
2022-10-26T17:33:42.883Z,101259.75
2022-10-26T17:36:11.258Z,101270.91
2022-10-26T17:38:40.194Z,101271.69
2022-10-26T17:41:14.964Z,101277.44
2022-10-26T17:43:43.353Z,101279.09
2022-10-26T17:46:12.389Z,101275.88
2022-10-26T17:48:39.607Z,101286.72
2022-10-26T17:51:10.019Z,101289.44
2022-10-26T17:53:36.919Z,101287.53
2022-10-26T17:56:08.397Z,101295.94
2022-10-26T17:58:35.567Z,101297.34
2022-10-26T18:01:04.311Z,101300.31
2022-10-26T18:03:31.217Z,101298.72
2022-10-26T18:05:59.206Z,101307.13
2022-10-26T18:08:27.266Z,101303.09
2022-10-26T18:10:55.571Z,101312.31
2022-10-26T18:13:22.492Z,101309.91
2022-10-26T18:15:49.075Z,101312.63
2022-10-26T18:18:15.673Z,101319.94
2022-10-26T18:20:42.205Z,101325.34
2022-10-26T18:23:08.779Z,101320.50
2022-10-26T18:25:36.541Z,101321.91
2022-10-26T18:28:04.193Z,101319.47
2022-10-26T18:30:30.982Z,101320.56
2022-10-26T18:32:57.787Z,101322.75
2022-10-26T18:35:24.549Z,101321.72
2022-10-26T18:37:51.553Z,101325.78
2022-10-26T18:40:18.708Z,101332.59
2022-10-26T18:42:45.881Z,101324.50
2022-10-26T18:45:12.651Z,101337.00
2022-10-26T18:47:39.315Z,101338.94
2022-10-26T18:50:06.380Z,101340.88
2022-10-26T18:52:33.062Z,101343.09
2022-10-26T18:54:59.714Z,101347.19
2022-10-26T18:57:28.434Z,101348.81
2022-10-26T18:59:55.327Z,101345.31
2022-10-26T19:02:23.091Z,101341.56
2022-10-26T19:04:53.040Z,101355.69
2022-10-26T19:07:20.214Z,101354.09
2022-10-26T19:09:47.151Z,101353.13
2022-10-26T19:12:13.835Z,101362.31
2022-10-26T19:14:40.495Z,101359.59
2022-10-26T19:17:07.411Z,101361.50
2022-10-26T19:19:35.396Z,101366.13
2022-10-26T19:22:02.121Z,101363.97
2022-10-26T19:24:28.814Z,101363.97
2022-10-26T19:26:56.599Z,101371.56
2022-10-26T19:29:23.396Z,101370.19
2022-10-26T19:31:52.787Z,101369.91
2022-10-26T19:34:19.723Z,101378.31
2022-10-26T19:36:47.820Z,101377.22
2022-10-26T19:39:16.317Z,101377.53
2022-10-26T19:41:44.329Z,101384.59
2022-10-26T19:44:12.097Z,101383.00
2022-10-26T19:46:41.807Z,101387.59
2022-10-26T19:49:09.024Z,101387.34
2022-10-26T19:51:36.028Z,101380.84
2022-10-26T19:54:04.472Z,101385.19
2022-10-26T19:56:32.906Z,101385.75
2022-10-26T19:58:59.853Z,101380.06
2022-10-26T20:01:26.736Z,101385.25
2022-10-26T20:03:53.684Z,101396.59
2022-10-26T20:06:20.680Z,101397.16
2022-10-26T20:08:48.943Z,101400.09
2022-10-26T20:11:20.191Z,101401.72
2022-10-26T20:13:48.105Z,101410.13
2022-10-26T20:16:16.802Z,101405.53
2022-10-26T20:18:47.596Z,101406.06
2022-10-26T20:21:17.335Z,101403.63
2022-10-26T20:23:45.129Z,101403.09
2022-10-26T20:26:19.608Z,101401.47
2022-10-26T20:28:48.846Z,101399.56
2022-10-26T20:31:15.736Z,101401.47
2022-10-26T20:33:42.432Z,101405.25
2022-10-26T20:36:09.306Z,101400.41
2022-10-26T20:38:36.409Z,101404.75
2022-10-26T20:41:06.292Z,101410.69
2022-10-26T20:43:39.122Z,101413.13
2022-10-26T20:46:06.983Z,101410.97
2022-10-26T20:48:34.077Z,101416.94
2022-10-26T20:51:06.786Z,101418.81
2022-10-26T20:53:42.683Z,101418.28
2022-10-26T20:56:25.002Z,101415.03
2022-10-26T20:58:55.875Z,101415.03
2022-10-26T21:01:30.865Z,101419.59
2022-10-26T21:03:59.919Z,101416.13
2022-10-26T21:06:27.240Z,101419.88
2022-10-26T21:08:55.711Z,101428.00
2022-10-26T21:11:24.082Z,101423.41
2022-10-26T21:13:54.295Z,101432.59
2022-10-26T21:18:53.265Z,101444.75
2022-10-26T21:21:19.949Z,101447.19
2022-10-26T21:23:46.546Z,101445.03
2022-10-26T21:26:13.551Z,101444.47
2022-10-26T21:28:42.061Z,101452.06
2022-10-26T21:31:10.755Z,101452.03
2022-10-26T21:33:37.614Z,101458.78
2022-10-26T21:36:06.963Z,101450.66
2022-10-26T21:38:33.979Z,101453.13
2022-10-26T21:41:12.081Z,101455.00
2022-10-26T21:43:40.901Z,101459.88
2022-10-26T21:46:08.406Z,101462.88
2022-10-26T21:48:35.739Z,101461.22
2022-10-26T21:51:04.350Z,101457.16
2022-10-26T21:53:31.572Z,101458.22
2022-10-26T21:56:09.891Z,101460.13
2022-10-26T21:58:37.041Z,101462.28
2022-10-26T22:01:22.691Z,101465.53
2022-10-26T22:03:50.050Z,101463.63
2022-10-26T22:06:21.468Z,101461.47
2022-10-26T22:08:48.848Z,101467.91
2022-10-26T22:11:19.404Z,101466.53
2022-10-26T22:13:47.200Z,101471.66
2022-10-26T22:16:22.870Z,101466.22
2022-10-26T22:18:50.967Z,101470.75
2022-10-26T22:21:19.416Z,101470.50
2022-10-26T22:23:46.717Z,101465.34
2022-10-26T22:26:18.859Z,101462.41
2022-10-26T22:28:47.391Z,101461.84
2022-10-26T22:31:23.935Z,101459.94
2022-10-26T22:33:56.123Z,101465.34
2022-10-26T22:36:23.773Z,101468.31
2022-10-26T22:38:51.061Z,101458.31
2022-10-26T22:41:19.405Z,101466.16
2022-10-26T22:43:46.676Z,101465.09
2022-10-26T22:46:24.737Z,101470.22
2022-10-26T22:48:56.712Z,101470.22
2022-10-26T22:51:25.350Z,101466.41
2022-10-26T22:53:58.140Z,101463.72
2022-10-26T22:58:54.162Z,101467.81
2022-10-26T23:01:23.449Z,101469.41
2022-10-26T23:03:50.675Z,101467.00
2022-10-26T23:06:19.229Z,101466.16
2022-10-26T23:08:46.289Z,101476.91
2022-10-26T23:11:15.933Z,101473.66
2022-10-26T23:13:42.757Z,101475.53
2022-10-26T23:16:14.719Z,101472.56
2022-10-26T23:18:41.861Z,101478.50
2022-10-26T23:21:09.724Z,101484.19
2022-10-26T23:23:37.200Z,101487.22
2022-10-26T23:26:09.147Z,101485.06
2022-10-26T23:28:36.539Z,101483.66
2022-10-26T23:31:04.031Z,101482.88
2022-10-26T23:33:31.231Z,101484.47
2022-10-26T23:35:58.430Z,101494.94
2022-10-26T23:38:26.021Z,101492.50
2022-10-26T23:40:54.667Z,101494.63
2022-10-26T23:43:21.624Z,101490.03
2022-10-26T23:45:48.646Z,101489.28
2022-10-26T23:48:16.436Z,101496.84
2022-10-26T23:50:44.492Z,101497.34
2022-10-26T23:53:12.457Z,101500.03
2022-10-26T23:55:39.703Z,101493.53
2022-10-26T23:58:06.822Z,101502.09
